Time;durP1;ratioP1;P1;durP2;ratioP2;P2;SDS_P1;SDS_P2;PMS_P1;PMS_P2;Temp;Humidity;BMP_temperature;BMP_pressure;BME280_temperature;BME280_humidity;BME280_pressure;Samples;Min_cycle;Max_cycle;Signal;HPM_P1;HPM_P2
2024/01/23 00:00:53;;;;;;;6.80;1.20;;;6.10;99.90;;;;;;5068447;28;20293;-65
2024/01/23 00:03:25;;;;;;;4.38;1.27;;;6.10;99.90;;;;;;5055173;28;20449;-65
2024/01/23 00:05:56;;;;;;;4.38;1.50;;;6.10;99.90;;;;;;5076505;28;20055;-65
2024/01/23 00:08:29;;;;;;;3.90;1.23;;;6.00;99.90;;;;;;5071028;28;20037;-65
2024/01/23 00:11:01;;;;;;;4.00;1.27;;;6.00;99.90;;;;;;5045827;28;20578;-65
2024/01/23 00:13:32;;;;;;;3.53;1.70;;;6.00;99.90;;;;;;5052216;28;20045;-65
2024/01/23 00:16:05;;;;;;;3.28;1.67;;;5.90;99.90;;;;;;5057604;28;20045;-65
2024/01/23 00:18:37;;;;;;;4.50;1.80;;;5.80;99.90;;;;;;5059582;28;20051;-65
2024/01/23 00:21:09;;;;;;;2.03;1.27;;;5.80;99.90;;;;;;5064452;28;20386;-65
2024/01/23 00:23:41;;;;;;;3.28;1.20;;;5.80;99.90;;;;;;5061899;28;20036;-64
2024/01/23 00:26:08;;;;;;;2.00;1.30;;;5.80;99.90;;;;;;5055405;28;20406;-65
2024/01/23 00:28:40;;;;;;;2.08;0.85;;;5.70;99.90;;;;;;5057889;28;20047;-64
2024/01/23 00:31:07;;;;;;;1.40;0.75;;;5.70;99.90;;;;;;5055557;28;20494;-64
2024/01/23 00:33:39;;;;;;;3.25;1.35;;;5.70;99.90;;;;;;5052544;28;20532;-65
2024/01/23 00:36:11;;;;;;;2.65;0.60;;;5.60;99.90;;;;;;5065702;28;20123;-66
2024/01/23 00:38:43;;;;;;;1.90;0.70;;;5.60;99.90;;;;;;5042493;28;20428;-64
2024/01/23 00:41:10;;;;;;;2.15;0.70;;;5.60;99.90;;;;;;5060393;28;20045;-65
2024/01/23 00:43:41;;;;;;;2.35;0.55;;;5.50;99.90;;;;;;5059991;28;20044;-64
2024/01/23 00:46:08;;;;;;;2.95;0.90;;;5.40;99.90;;;;;;5061403;28;20043;-64
2024/01/23 00:48:40;;;;;;;3.22;0.90;;;5.30;99.90;;;;;;5066434;28;20123;-65
2024/01/23 00:51:07;;;;;;;2.42;0.75;;;5.20;99.90;;;;;;5069307;28;20044;-64
2024/01/23 00:53:39;;;;;;;2.17;1.10;;;5.10;99.90;;;;;;5064511;28;20497;-65
2024/01/23 00:56:10;;;;;;;1.92;0.82;;;5.10;99.90;;;;;;5067255;28;20072;-65
2024/01/23 00:58:42;;;;;;;4.50;1.80;;;5.10;99.90;;;;;;5058274;28;20042;-65
2024/01/23 01:01:14;;;;;;;1.88;0.82;;;5.00;99.90;;;;;;5049203;28;20060;-65
2024/01/23 01:03:46;;;;;;;2.42;0.70;;;5.00;99.90;;;;;;5039060;28;20102;-65
2024/01/23 01:06:18;;;;;;;6.47;2.42;;;5.00;99.90;;;;;;5065433;28;20037;-65
2024/01/23 01:08:45;;;;;;;2.47;1.42;;;5.00;99.90;;;;;;5062772;28;20036;-65
2024/01/23 01:11:16;;;;;;;3.83;1.00;;;5.00;99.90;;;;;;5065800;28;20047;-65
2024/01/23 01:13:48;;;;;;;2.00;0.80;;;4.90;99.90;;;;;;5057809;28;20490;-65
2024/01/23 01:16:20;;;;;;;4.88;0.90;;;4.90;99.90;;;;;;5065663;28;20055;-65
2024/01/23 01:18:53;;;;;;;6.03;2.35;;;4.90;99.90;;;;;;5049490;28;20055;-65
2024/01/23 01:21:25;;;;;;;5.03;2.30;;;5.00;99.90;;;;;;5065487;28;20040;-65
2024/01/23 01:23:56;;;;;;;2.17;1.10;;;5.00;99.90;;;;;;5065608;28;20041;-65
2024/01/23 01:26:28;;;;;;;3.45;1.17;;;5.00;99.90;;;;;;5067511;28;20048;-65
2024/01/23 01:29:00;;;;;;;3.90;1.27;;;4.90;99.90;;;;;;5044687;28;20044;-65
2024/01/23 01:31:32;;;;;;;4.80;0.98;;;4.90;99.90;;;;;;5058621;28;20045;-65
2024/01/23 01:34:04;;;;;;;6.55;1.70;;;4.90;99.90;;;;;;5065944;28;20134;-65
2024/01/23 01:36:35;;;;;;;4.47;1.60;;;5.00;99.90;;;;;;5057123;28;20135;-65
2024/01/23 01:39:07;;;;;;;3.97;1.20;;;5.00;99.90;;;;;;5049855;28;20067;-65
2024/01/23 01:41:39;;;;;;;2.75;1.00;;;5.00;99.90;;;;;;5064460;28;20076;-65
2024/01/23 01:44:11;;;;;;;3.65;0.85;;;5.00;99.90;;;;;;5067368;28;20079;-64
2024/01/23 01:46:43;;;;;;;4.88;1.60;;;5.00;99.90;;;;;;5069503;28;20544;-65
2024/01/23 01:49:17;;;;;;;3.25;1.13;;;5.00;99.90;;;;;;5051855;28;20078;-65
2024/01/23 01:51:44;;;;;;;3.75;0.90;;;5.00;99.90;;;;;;5044676;28;20047;-65
2024/01/23 01:54:17;;;;;;;3.55;1.00;;;4.90;99.90;;;;;;5069996;28;20504;-65
2024/01/23 01:56:52;;;;;;;4.75;0.90;;;4.80;99.90;;;;;;5062383;28;20040;-65
2024/01/23 01:59:24;;;;;;;4.60;0.88;;;4.80;99.90;;;;;;5056881;28;20076;-65
2024/01/23 02:01:56;;;;;;;3.22;0.93;;;4.80;99.90;;;;;;5069674;28;20047;-65
2024/01/23 02:04:27;;;;;;;3.35;0.85;;;4.70;99.90;;;;;;5056087;28;20505;-65
2024/01/23 02:07:00;;;;;;;2.25;1.40;;;4.70;99.90;;;;;;5046264;28;20047;-66
2024/01/23 02:09:32;;;;;;;5.50;1.30;;;4.60;99.90;;;;;;5073857;28;20045;-65
2024/01/23 02:12:05;;;;;;;2.17;0.90;;;4.60;99.90;;;;;;5063652;28;20449;-65
2024/01/23 02:14:37;;;;;;;3.75;1.15;;;4.70;99.90;;;;;;5066331;28;20051;-65
2024/01/23 02:17:09;;;;;;;3.78;0.90;;;4.70;99.90;;;;;;5066459;28;20044;-64
2024/01/23 02:19:41;;;;;;;1.95;1.00;;;4.70;99.90;;;;;;5069361;28;20040;-65
2024/01/23 02:22:12;;;;;;;4.45;1.00;;;4.70;99.90;;;;;;5057690;28;20137;-64
2024/01/23 02:24:44;;;;;;;2.25;0.80;;;4.70;99.90;;;;;;5059461;28;20524;-65
2024/01/23 02:27:16;;;;;;;3.55;1.00;;;4.70;99.90;;;;;;5066478;28;20045;-65
2024/01/23 02:29:48;;;;;;;3.38;1.00;;;4.70;99.90;;;;;;5060166;28;20028;-65
2024/01/23 02:32:15;;;;;;;3.70;1.00;;;4.70;99.90;;;;;;5070137;28;20712;-65
2024/01/23 02:34:46;;;;;;;3.35;0.80;;;4.80;99.90;;;;;;5046282;28;20204;-65
2024/01/23 02:37:18;;;;;;;2.78;0.88;;;4.90;99.90;;;;;;5054282;28;20064;-65
2024/01/23 02:39:50;;;;;;;3.75;0.80;;;4.90;99.90;;;;;;5067999;28;20104;-65
2024/01/23 02:42:22;;;;;;;4.15;0.70;;;5.00;99.90;;;;;;5066072;28;20037;-65
2024/01/23 02:44:53;;;;;;;4.30;0.68;;;4.90;99.90;;;;;;5062446;28;20047;-65
2024/01/23 02:47:25;;;;;;;2.05;0.70;;;5.00;99.90;;;;;;5063753;28;20041;-64
2024/01/23 02:49:58;;;;;;;1.75;0.50;;;4.90;99.90;;;;;;5062925;28;20606;-65
2024/01/23 02:52:27;;;;;;;5.53;0.85;;;4.90;99.90;;;;;;5056723;28;20532;-65
2024/01/23 02:54:59;;;;;;;3.58;1.35;;;4.90;99.90;;;;;;5065155;28;20500;-65
2024/01/23 02:57:27;;;;;;;2.97;0.93;;;4.90;99.90;;;;;;5063547;28;20120;-65
2024/01/23 02:59:59;;;;;;;1.83;0.52;;;4.90;99.90;;;;;;5059250;28;20036;-65
2024/01/23 03:02:25;;;;;;;2.13;0.80;;;5.00;99.90;;;;;;5066063;28;20421;-65
2024/01/23 03:04:57;;;;;;;2.08;0.77;;;4.90;99.90;;;;;;5044176;28;20517;-65
2024/01/23 03:07:24;;;;;;;2.90;0.90;;;4.80;99.90;;;;;;5065528;28;20040;-65
2024/01/23 03:09:56;;;;;;;1.17;0.70;;;4.70;99.90;;;;;;5062334;28;20036;-64
2024/01/23 03:12:28;;;;;;;1.35;0.60;;;4.60;99.90;;;;;;5048158;28;20454;-65
2024/01/23 03:15:00;;;;;;;4.05;0.70;;;4.60;99.90;;;;;;5049762;28;20101;-64
2024/01/23 03:17:32;;;;;;;2.35;0.70;;;4.60;99.90;;;;;;5057847;28;20049;-65
2024/01/23 03:20:05;;;;;;;2.35;1.40;;;4.60;99.90;;;;;;5066483;28;20044;-64
2024/01/23 03:22:37;;;;;;;4.00;0.80;;;4.60;99.90;;;;;;5065566;28;20044;-64
2024/01/23 03:25:09;;;;;;;2.80;0.60;;;4.70;99.90;;;;;;5063500;28;20047;-65
2024/01/23 03:27:41;;;;;;;1.65;0.75;;;4.60;99.90;;;;;;5066833;28;20041;-65
2024/01/23 03:30:33;;;;;;;2.92;0.50;;;4.70;99.90;;;;;;5059191;28;20127;-64
2024/01/23 03:33:05;;;;;;;4.50;0.73;;;4.80;99.90;;;;;;5064963;28;20036;-65
2024/01/23 03:35:37;;;;;;;3.33;1.05;;;4.70;99.90;;;;;;5030369;28;20056;-65
2024/01/23 03:38:09;;;;;;;2.60;1.05;;;4.70;99.90;;;;;;5063378;28;20480;-64
2024/01/23 03:40:36;;;;;;;2.63;0.60;;;4.70;99.90;;;;;;5057942;28;20052;-65
2024/01/23 03:43:08;;;;;;;4.30;0.73;;;4.70;99.90;;;;;;5068491;28;20475;-65
2024/01/23 03:45:40;;;;;;;3.08;0.80;;;4.80;99.90;;;;;;5045098;28;20040;-65
2024/01/23 03:48:12;;;;;;;4.80;1.10;;;4.80;99.90;;;;;;5063461;28;20060;-65
2024/01/23 03:50:44;;;;;;;5.10;1.45;;;4.80;99.90;;;;;;5058751;28;20047;-65
2024/01/23 03:53:16;;;;;;;3.67;0.90;;;4.80;99.90;;;;;;5049108;28;20052;-65
2024/01/23 03:55:47;;;;;;;3.15;1.45;;;4.80;99.90;;;;;;5067649;28;20412;-65
2024/01/23 03:58:19;;;;;;;5.00;0.60;;;4.80;99.90;;;;;;5065757;28;20521;-65
2024/01/23 04:00:53;;;;;;;2.95;0.88;;;4.80;99.90;;;;;;5066924;28;20044;-65
2024/01/23 04:03:25;;;;;;;3.13;1.10;;;4.80;99.90;;;;;;5062062;28;20124;-65
2024/01/23 04:05:57;;;;;;;4.55;1.02;;;4.80;99.90;;;;;;5056760;28;20043;-65
2024/01/23 04:08:28;;;;;;;7.35;1.50;;;4.80;99.90;;;;;;5060634;28;20033;-65
2024/01/23 04:10:57;;;;;;;6.47;0.80;;;4.80;99.90;;;;;;5038181;28;20133;-65
2024/01/23 04:13:29;;;;;;;2.55;0.88;;;4.80;99.90;;;;;;5068758;28;20064;-65
2024/01/23 04:15:56;;;;;;;5.60;0.90;;;4.70;99.90;;;;;;5064881;28;20127;-65
2024/01/23 04:18:28;;;;;;;3.75;0.80;;;4.70;99.90;;;;;;5057509;28;20047;-65
2024/01/23 04:21:00;;;;;;;7.20;1.20;;;4.70;99.90;;;;;;5068804;28;20051;-65
2024/01/23 04:23:32;;;;;;;2.40;0.70;;;4.70;99.90;;;;;;5065759;28;20075;-65
2024/01/23 04:26:06;;;;;;;3.85;1.00;;;4.80;99.90;;;;;;5049315;28;20487;-65
2024/01/23 04:28:34;;;;;;;2.83;0.85;;;4.80;99.90;;;;;;5071452;28;20473;-65
2024/01/23 04:31:06;;;;;;;2.57;0.77;;;4.80;99.90;;;;;;5050838;28;20131;-65
2024/01/23 04:33:38;;;;;;;3.13;0.88;;;4.80;99.90;;;;;;5063507;28;20333;-65
2024/01/23 04:36:11;;;;;;;6.45;0.80;;;4.80;99.90;;;;;;5069726;28;20436;-66
2024/01/23 04:38:43;;;;;;;2.95;0.90;;;4.80;99.90;;;;;;5043050;28;20399;-65
2024/01/23 04:41:15;;;;;;;2.15;0.70;;;4.80;99.90;;;;;;5040777;28;20080;-65
2024/01/23 04:43:47;;;;;;;4.90;1.77;;;4.80;99.90;;;;;;5072030;28;20049;-65
2024/01/23 04:46:19;;;;;;;3.10;0.73;;;4.80;99.90;;;;;;5067810;28;20044;-65
2024/01/23 04:48:51;;;;;;;2.35;0.70;;;4.80;99.90;;;;;;5068701;28;20052;-65
2024/01/23 04:51:18;;;;;;;7.40;1.02;;;4.80;99.90;;;;;;5067260;28;20048;-64
2024/01/23 04:53:52;;;;;;;4.13;0.95;;;4.70;99.90;;;;;;5070257;28;20082;-65
2024/01/23 04:56:24;;;;;;;4.30;1.00;;;4.60;99.90;;;;;;5049194;28;20412;-65
2024/01/23 04:58:55;;;;;;;2.88;0.68;;;4.50;99.90;;;;;;5067805;28;20049;-64
2024/01/23 05:01:22;;;;;;;5.68;1.00;;;4.50;99.90;;;;;;5067369;28;20045;-65
2024/01/23 05:03:50;;;;;;;5.72;1.10;;;4.50;99.90;;;;;;5066153;28;20098;-65
2024/01/23 05:06:22;;;;;;;3.47;0.90;;;4.50;99.90;;;;;;5056292;28;20044;-65
2024/01/23 05:08:54;;;;;;;1.20;0.60;;;4.50;99.90;;;;;;5042537;28;20088;-65
2024/01/23 05:11:25;;;;;;;7.00;1.00;;;4.60;99.90;;;;;;5059852;28;20123;-66
2024/01/23 05:13:57;;;;;;;3.53;0.88;;;4.50;99.90;;;;;;5043837;28;21280;-65
2024/01/23 05:16:29;;;;;;;3.90;1.35;;;4.50;99.90;;;;;;5067806;28;20506;-65
2024/01/23 05:19:01;;;;;;;5.28;0.65;;;4.70;99.90;;;;;;5068791;28;20122;-66
2024/01/23 05:21:28;;;;;;;6.40;2.05;;;4.70;99.90;;;;;;5061559;28;20041;-66
2024/01/23 05:24:03;;;;;;;2.22;0.98;;;4.70;99.90;;;;;;5072230;28;20044;-65
2024/01/23 05:26:35;;;;;;;4.20;1.02;;;4.70;99.90;;;;;;5069081;28;20040;-65
2024/01/23 05:29:01;;;;;;;6.63;1.10;;;4.70;99.90;;;;;;5064925;28;20056;-65
2024/01/23 05:31:33;;;;;;;6.75;0.85;;;4.80;99.90;;;;;;5056651;28;20037;-65
2024/01/23 05:34:05;;;;;;;5.93;0.95;;;4.70;99.90;;;;;;5050262;28;20298;-65
2024/01/23 05:36:37;;;;;;;3.78;1.05;;;4.80;99.90;;;;;;5059516;28;20037;-65
2024/01/23 05:39:09;;;;;;;4.32;1.30;;;4.90;99.90;;;;;;5055204;28;20048;-64
2024/01/23 05:41:41;;;;;;;2.70;1.25;;;4.90;99.90;;;;;;5069605;28;20067;-65
2024/01/23 05:44:08;;;;;;;5.32;1.15;;;5.00;99.90;;;;;;5051652;28;20127;-65
2024/01/23 05:46:40;;;;;;;9.75;2.08;;;5.00;99.90;;;;;;5070244;28;20519;-65
2024/01/23 05:49:11;;;;;;;5.82;1.02;;;4.90;99.90;;;;;;5070969;28;20036;-65
2024/01/23 05:51:43;;;;;;;5.43;1.48;;;4.90;99.90;;;;;;5050633;28;20061;-65
2024/01/23 05:54:15;;;;;;;7.22;1.63;;;4.90;99.90;;;;;;5063766;28;20029;-65
2024/01/23 05:56:42;;;;;;;6.68;2.03;;;4.80;99.90;;;;;;5056587;28;20037;-65
2024/01/23 05:59:15;;;;;;;7.45;1.20;;;4.90;99.90;;;;;;5056362;28;20045;-65
2024/01/23 06:01:47;;;;;;;4.75;0.90;;;4.90;99.90;;;;;;5070572;28;20130;-65
2024/01/23 06:04:19;;;;;;;6.47;1.00;;;4.90;99.90;;;;;;5051202;28;20063;-65
2024/01/23 06:06:51;;;;;;;5.55;1.00;;;4.90;99.90;;;;;;5044310;28;20438;-65
2024/01/23 06:09:23;;;;;;;4.97;1.10;;;4.90;99.90;;;;;;5066931;28;20041;-65
2024/01/23 06:11:55;;;;;;;3.22;0.85;;;4.90;99.90;;;;;;5069891;28;20064;-66
2024/01/23 06:14:27;;;;;;;5.03;1.10;;;4.90;99.90;;;;;;5066769;28;20044;-65
2024/01/23 06:16:54;;;;;;;3.92;1.27;;;4.90;99.90;;;;;;5065692;28;20036;-65
2024/01/23 06:19:26;;;;;;;5.75;1.08;;;4.90;99.90;;;;;;5067016;28;20106;-65
2024/01/23 06:21:57;;;;;;;10.13;1.58;;;4.80;99.90;;;;;;5062792;28;20535;-65
2024/01/23 06:24:31;;;;;;;5.82;1.33;;;4.70;99.90;;;;;;5066444;28;20501;-65
2024/01/23 06:27:03;;;;;;;;;;;4.70;99.90;;;;;;5074898;28;20055;-65
2024/01/23 06:29:36;;;;;;;3.17;1.10;;;4.60;99.90;;;;;;5061770;28;19924;-65
2024/01/23 06:32:08;;;;;;;5.72;1.40;;;4.50;99.90;;;;;;5064835;28;20044;-65
2024/01/23 06:34:40;;;;;;;7.20;1.58;;;4.40;99.90;;;;;;5064079;28;20512;-65
2024/01/23 06:37:11;;;;;;;6.28;1.20;;;4.40;99.90;;;;;;5052460;28;20524;-65
2024/01/23 06:39:44;;;;;;;5.53;1.17;;;4.30;99.90;;;;;;5059623;28;20049;-65
2024/01/23 06:42:17;;;;;;;3.33;1.20;;;4.30;99.90;;;;;;5050682;28;20136;-65
2024/01/23 06:44:49;;;;;;;8.60;1.17;;;4.20;99.90;;;;;;5055720;28;20049;-65
2024/01/23 06:47:20;;;;;;;5.05;1.73;;;4.20;99.90;;;;;;5070983;28;20059;-65
2024/01/23 06:49:52;;;;;;;2.80;1.13;;;4.10;99.90;;;;;;5071125;28;20043;-65
2024/01/23 06:52:24;;;;;;;8.63;1.52;;;4.10;99.90;;;;;;5069904;28;20033;-64
2024/01/23 06:54:57;;;;;;;6.85;2.88;;;4.00;99.90;;;;;;5054451;28;20060;-65
2024/01/23 06:57:29;;;;;;;5.38;1.75;;;3.80;99.90;;;;;;5050445;28;20036;-65
2024/01/23 07:00:01;;;;;;;5.57;0.98;;;3.80;99.90;;;;;;5051964;28;20048;-64
2024/01/23 07:02:27;;;;;;;2.15;0.90;;;3.70;99.90;;;;;;5051124;28;20044;-64
2024/01/23 07:04:59;;;;;;;8.50;1.35;;;3.70;99.90;;;;;;5066414;28;20059;-65
2024/01/23 07:07:31;;;;;;;7.93;1.10;;;3.70;99.90;;;;;;5052318;28;20044;-64
2024/01/23 07:10:03;;;;;;;6.35;1.25;;;3.60;99.90;;;;;;5059849;28;20552;-66
2024/01/23 07:12:29;;;;;;;3.47;1.00;;;3.60;99.90;;;;;;5067572;28;20037;-64
2024/01/23 07:14:56;;;;;;;7.43;1.05;;;3.60;99.90;;;;;;5058502;28;20051;-65
2024/01/23 07:17:29;;;;;;;3.42;0.77;;;3.60;99.90;;;;;;5047252;28;20123;-65
2024/01/23 07:19:56;;;;;;;1.63;0.80;;;3.60;99.90;;;;;;5067880;28;20041;-65
2024/01/23 07:22:23;;;;;;;2.88;0.70;;;3.60;99.90;;;;;;5054234;28;20029;-65
2024/01/23 07:24:55;;;;;;;3.78;1.00;;;3.50;99.90;;;;;;5048502;28;20078;-65
2024/01/23 07:27:27;;;;;;;2.15;0.70;;;3.40;99.90;;;;;;5060991;28;20045;-66
2024/01/23 07:29:58;;;;;;;4.28;0.70;;;3.40;99.90;;;;;;5060560;28;20055;-65
2024/01/23 07:32:30;;;;;;;1.80;0.50;;;3.40;99.90;;;;;;5060891;28;20390;-64
2024/01/23 07:35:03;;;;;;;0.65;0.30;;;3.40;99.90;;;;;;5059970;28;20064;-65
2024/01/23 07:37:35;;;;;;;2.33;0.73;;;3.40;99.90;;;;;;5049861;28;20034;-65
2024/01/23 07:40:02;;;;;;;3.17;1.35;;;3.40;99.90;;;;;;5046930;28;20040;-65
2024/01/23 07:42:34;;;;;;;2.50;0.73;;;3.40;99.90;;;;;;5045817;28;20114;-65
2024/01/23 07:45:06;;;;;;;3.90;2.00;;;3.40;99.90;;;;;;5052265;28;20120;-65
2024/01/23 07:47:38;;;;;;;1.42;0.75;;;3.40;99.90;;;;;;5055731;28;20051;-66
2024/01/23 07:50:11;;;;;;;2.00;0.60;;;3.40;99.90;;;;;;5050973;28;20063;-65
2024/01/23 07:52:38;;;;;;;0.60;0.40;;;3.30;99.90;;;;;;5054560;28;20078;-65
2024/01/23 07:55:10;;;;;;;1.65;0.88;;;3.20;99.90;;;;;;5045624;28;20697;-65
2024/01/23 07:57:42;;;;;;;2.17;0.57;;;3.20;99.90;;;;;;5053951;28;20121;-65
2024/01/23 08:00:18;;;;;;;3.47;0.85;;;3.10;99.90;;;;;;5059249;28;20117;-65
2024/01/23 08:02:50;;;;;;;3.72;2.10;;;3.10;99.90;;;;;;5068999;28;20118;-65
2024/01/23 08:05:22;;;;;;;3.28;1.00;;;3.10;99.90;;;;;;5070881;28;20464;-66
2024/01/23 08:07:54;;;;;;;2.47;0.90;;;3.10;99.90;;;;;;5057339;28;20045;-65
2024/01/23 08:10:24;;;;;;;3.53;1.30;;;3.10;99.90;;;;;;5060792;28;20041;-66
2024/01/23 08:12:56;;;;;;;2.10;0.90;;;3.10;99.90;;;;;;5070345;28;20678;-65
2024/01/23 08:15:28;;;;;;;2.97;1.10;;;3.10;99.90;;;;;;5062843;28;20129;-65
2024/01/23 08:17:55;;;;;;;4.40;1.17;;;3.10;99.90;;;;;;5064673;28;20575;-65
2024/01/23 08:20:22;;;;;;;5.30;1.70;;;3.10;99.90;;;;;;5050834;28;20529;-65
2024/01/23 08:22:54;;;;;;;6.18;1.88;;;3.10;99.90;;;;;;5071202;28;20519;-65
2024/01/23 08:25:26;;;;;;;31.58;14.73;;;3.10;99.90;;;;;;5070624;28;20532;-66
2024/01/23 08:27:59;;;;;;;4.78;2.00;;;3.10;99.90;;;;;;5053776;28;20069;-65
2024/01/23 08:30:30;;;;;;;3.38;1.17;;;3.10;99.90;;;;;;5070539;28;20051;-65
2024/01/23 08:33:03;;;;;;;4.88;2.95;;;3.10;99.90;;;;;;5071713;28;20041;-65
2024/01/23 08:35:36;;;;;;;2.78;1.52;;;3.10;99.90;;;;;;5053075;28;20123;-65
2024/01/23 08:38:03;;;;;;;3.05;1.20;;;3.20;99.90;;;;;;5065725;28;20049;-65
2024/01/23 08:40:35;;;;;;;5.15;1.85;;;3.20;99.90;;;;;;5066727;28;20029;-65
2024/01/23 08:43:07;;;;;;;3.65;1.25;;;3.30;99.90;;;;;;5057126;28;20579;-65
2024/01/23 08:45:39;;;;;;;5.22;1.75;;;3.30;99.90;;;;;;5068970;28;20033;-65
2024/01/23 08:48:11;;;;;;;5.82;1.90;;;3.40;99.90;;;;;;5058791;28;20513;-64
2024/01/23 08:50:43;;;;;;;9.02;3.58;;;3.40;99.90;;;;;;5067819;28;20053;-65
2024/01/23 08:53:15;;;;;;;5.90;1.70;;;3.50;99.90;;;;;;5054022;28;20067;-65
2024/01/23 08:55:47;;;;;;;7.70;1.90;;;3.60;99.90;;;;;;5069337;28;20041;-64
2024/01/23 08:58:19;;;;;;;4.03;1.90;;;3.60;99.90;;;;;;5056166;28;20076;-67
2024/01/23 09:00:51;;;;;;;7.38;1.70;;;3.60;99.90;;;;;;5065244;28;20055;-65
2024/01/23 09:03:17;;;;;;;9.40;2.05;;;3.60;99.90;;;;;;5060791;28;20137;-64
2024/01/23 09:05:50;;;;;;;9.23;1.90;;;3.70;99.90;;;;;;5068052;28;20038;-65
2024/01/23 09:08:22;;;;;;;5.45;1.90;;;3.70;99.90;;;;;;5068530;28;20064;-65
2024/01/23 09:10:53;;;;;;;4.95;1.45;;;3.80;99.90;;;;;;5063369;28;20052;-65
2024/01/23 09:13:30;;;;;;;4.55;1.13;;;3.90;99.90;;;;;;5045826;28;20033;-66
2024/01/23 09:16:04;;;;;;;4.25;1.02;;;3.90;99.90;;;;;;5068157;28;20115;-65
2024/01/23 09:18:37;;;;;;;4.82;1.58;;;3.90;99.90;;;;;;5068548;28;20094;-65
2024/01/23 09:21:09;;;;;;;4.15;1.10;;;3.90;99.90;;;;;;5049745;28;20047;-65
2024/01/23 09:23:41;;;;;;;4.30;1.33;;;4.00;99.90;;;;;;5055923;28;20155;-65
2024/01/23 09:26:12;;;;;;;4.63;1.20;;;4.00;99.90;;;;;;5068602;28;20528;-65
2024/01/23 09:28:39;;;;;;;5.78;2.13;;;4.10;99.90;;;;;;5065938;28;20074;-65
2024/01/23 09:31:14;;;;;;;3.35;0.95;;;4.10;99.90;;;;;;5061435;28;20132;-65
2024/01/23 09:33:49;;;;;;;3.13;1.10;;;4.20;99.90;;;;;;5043291;28;20041;-65
2024/01/23 09:36:21;;;;;;;4.18;1.00;;;4.20;99.90;;;;;;5046242;28;20052;-65
2024/01/23 09:38:53;;;;;;;1.90;1.05;;;4.20;99.90;;;;;;5066513;28;20501;-65
2024/01/23 09:41:26;;;;;;;2.80;1.25;;;4.30;99.90;;;;;;5066845;28;20042;-65
2024/01/23 09:43:58;;;;;;;4.25;0.90;;;4.20;99.90;;;;;;5066920;28;20048;-65
2024/01/23 09:46:30;;;;;;;3.30;1.77;;;4.30;99.90;;;;;;5065029;28;20143;-65
2024/01/23 09:49:02;;;;;;;2.30;0.80;;;4.30;99.90;;;;;;5067867;28;20045;-65
2024/01/23 09:51:35;;;;;;;4.10;0.80;;;4.30;99.90;;;;;;5056002;28;20123;-65
2024/01/23 09:54:10;;;;;;;5.95;1.30;;;4.30;99.90;;;;;;5053869;28;20041;-65
2024/01/23 09:56:42;;;;;;;2.45;1.23;;;4.30;99.90;;;;;;5054408;28;20053;-66
2024/01/23 09:59:09;;;;;;;2.22;0.88;;;4.30;99.90;;;;;;5044226;28;20458;-65
2024/01/23 10:01:43;;;;;;;5.50;1.92;;;4.30;99.90;;;;;;5069892;28;20037;-65
2024/01/23 10:04:17;;;;;;;1.98;1.00;;;4.30;99.90;;;;;;5037025;28;20132;-65
2024/01/23 10:06:48;;;;;;;7.05;1.77;;;4.40;99.90;;;;;;5063660;28;20043;-65
2024/01/23 10:09:20;;;;;;;4.38;1.65;;;4.30;99.90;;;;;;5061921;28;20747;-65
2024/01/23 10:11:55;;;;;;;5.25;1.60;;;4.40;99.90;;;;;;5068979;28;20044;-65
2024/01/23 10:14:27;;;;;;;4.80;1.52;;;4.40;99.90;;;;;;5066240;28;20415;-65
2024/01/23 10:16:58;;;;;;;2.67;1.17;;;4.50;99.90;;;;;;5058569;28;20568;-66
2024/01/23 10:19:30;;;;;;;6.82;1.40;;;4.60;99.90;;;;;;5045758;28;20044;-66
2024/01/23 10:22:03;;;;;;;3.28;1.40;;;4.70;99.90;;;;;;5063818;28;20041;-65
2024/01/23 10:24:30;;;;;;;7.15;1.20;;;4.70;99.90;;;;;;5068634;28;20043;-65
2024/01/23 10:27:02;;;;;;;7.65;1.77;;;4.80;99.90;;;;;;5062661;28;20068;-65
2024/01/23 10:29:30;;;;;;;3.45;1.25;;;4.90;99.90;;;;;;5066387;28;20032;-65
2024/01/23 10:32:04;;;;;;;8.63;2.00;;;4.90;99.90;;;;;;5052080;28;20072;-66
2024/01/23 10:34:36;;;;;;;4.78;1.23;;;4.90;99.90;;;;;;5067471;28;20032;-66
2024/01/23 10:37:08;;;;;;;4.93;1.40;;;5.00;99.90;;;;;;5063801;28;20068;-65
2024/01/23 10:39:41;;;;;;;6.72;1.30;;;5.20;99.90;;;;;;5057077;28;20037;-65
2024/01/23 10:42:09;;;;;;;5.80;1.30;;;5.30;99.90;;;;;;5063734;28;20047;-66
2024/01/23 10:44:44;;;;;;;6.60;1.40;;;5.40;99.90;;;;;;5052252;28;20056;-66
2024/01/23 10:47:13;;;;;;;4.22;1.08;;;5.40;99.90;;;;;;5055365;28;20044;-66
2024/01/23 10:49:46;;;;;;;6.28;1.10;;;5.30;99.90;;;;;;5073636;28;20029;-66
2024/01/23 10:52:19;;;;;;;2.05;0.80;;;5.40;99.90;;;;;;5069948;28;20588;-65
2024/01/23 10:54:53;;;;;;;4.25;0.93;;;5.40;99.90;;;;;;5048866;28;20057;-65
2024/01/23 10:57:27;;;;;;;4.90;1.00;;;5.50;99.90;;;;;;5069103;28;20039;-66
2024/01/23 11:00:04;;;;;;;6.28;1.30;;;5.60;99.90;;;;;;5052315;28;20125;-65
2024/01/23 11:02:47;;;;;;;4.25;1.13;;;5.60;99.90;;;;;;5064722;28;20045;-65
2024/01/23 11:05:27;;;;;;;3.97;1.60;;;5.70;99.90;;;;;;5037036;28;20049;-65
2024/01/23 11:08:14;;;;;;;5.95;1.05;;;5.70;99.90;;;;;;5062653;28;20036;-65
2024/01/23 11:10:59;;;;;;;4.65;1.27;;;5.70;99.90;;;;;;5063541;28;20068;-65
2024/01/23 11:13:41;;;;;;;7.40;1.90;;;5.70;99.90;;;;;;5046940;28;20059;-66
2024/01/23 11:16:13;;;;;;;3.67;0.93;;;5.70;99.90;;;;;;5059559;28;20044;-66
2024/01/23 11:18:44;;;;;;;3.40;1.23;;;5.80;99.90;;;;;;5067066;28;20060;-66
2024/01/23 11:21:17;;;;;;;3.67;1.00;;;5.80;99.90;;;;;;5070755;28;20501;-66
2024/01/23 11:23:59;;;;;;;7.47;1.25;;;5.80;99.90;;;;;;5064500;28;20054;-66
2024/01/23 11:26:27;;;;;;;5.53;1.63;;;5.70;99.90;;;;;;5042603;28;20048;-65
2024/01/23 11:29:07;;;;;;;6.43;1.67;;;5.80;99.90;;;;;;5048803;28;20379;-65
2024/01/23 11:31:40;;;;;;;3.30;1.00;;;5.80;99.90;;;;;;5061557;28;20028;-65
2024/01/23 11:34:25;;;;;;;4.82;1.20;;;5.80;99.90;;;;;;5060698;28;20430;-66
2024/01/23 11:36:57;;;;;;;5.75;1.25;;;5.80;99.90;;;;;;5049675;28;20045;-65
2024/01/23 11:39:25;;;;;;;8.40;1.50;;;5.80;99.90;;;;;;5051430;28;20055;-65
2024/01/23 11:41:58;;;;;;;8.85;2.10;;;5.90;99.90;;;;;;5017656;28;20102;-65
2024/01/23 11:44:31;;;;;;;4.57;1.10;;;6.00;99.90;;;;;;5026872;28;20059;-65
2024/01/23 11:47:03;;;;;;;6.18;1.55;;;6.00;99.90;;;;;;5045508;28;20036;-65
2024/01/23 11:49:29;;;;;;;5.70;1.40;;;6.10;99.90;;;;;;5046159;28;20034;-65
2024/01/23 11:52:04;;;;;;;8.07;1.65;;;6.10;99.90;;;;;;5025350;28;20063;-66
2024/01/23 11:54:36;;;;;;;8.20;1.50;;;6.20;99.90;;;;;;5029526;28;20037;-66
2024/01/23 11:57:08;;;;;;;9.02;2.28;;;6.30;99.90;;;;;;5046034;28;20128;-66
2024/01/23 11:59:42;;;;;;;6.40;1.30;;;6.40;99.90;;;;;;5032386;28;20040;-66
2024/01/23 12:02:14;;;;;;;10.88;3.53;;;6.50;99.90;;;;;;5028250;28;20072;-66
2024/01/23 12:04:46;;;;;;;30.20;12.98;;;6.60;99.90;;;;;;5033572;28;20068;-66
2024/01/23 12:07:13;;;;;;;10.18;3.78;;;6.60;99.90;;;;;;5041421;28;20048;-66
2024/01/23 12:09:45;;;;;;;4.72;2.03;;;6.60;99.90;;;;;;5044041;28;20043;-66
2024/01/23 12:12:17;;;;;;;7.03;2.00;;;6.60;99.90;;;;;;5043054;28;20672;-66
2024/01/23 12:14:48;;;;;;;5.88;1.40;;;6.70;99.90;;;;;;5040022;28;20036;-65
2024/01/23 12:17:20;;;;;;;18.33;7.00;;;6.70;99.90;;;;;;5030302;28;20060;-66
2024/01/23 12:19:52;;;;;;;9.27;1.38;;;6.80;99.90;;;;;;5042029;28;20536;-66
2024/01/23 12:22:24;;;;;;;5.75;1.60;;;6.80;99.90;;;;;;5048630;28;20048;-65
2024/01/23 12:24:56;;;;;;;4.22;1.20;;;6.80;99.90;;;;;;5047851;28;20530;-65
2024/01/23 12:27:30;;;;;;;4.35;0.80;;;6.90;99.90;;;;;;5024271;28;20191;-65
2024/01/23 12:30:03;;;;;;;6.85;1.75;;;7.00;99.90;;;;;;5029921;28;20121;-66
2024/01/23 12:32:30;;;;;;;4.65;1.15;;;7.20;99.90;;;;;;5038441;28;20102;-65
2024/01/23 12:35:07;;;;;;;15.43;3.45;;;7.20;99.90;;;;;;5039704;28;20040;-65
2024/01/23 12:37:40;;;;;;;3.63;1.23;;;7.30;99.90;;;;;;5047661;28;20116;-66
2024/01/23 12:40:13;;;;;;;8.17;4.90;;;7.30;99.90;;;;;;5036413;28;20048;-65
2024/01/23 12:42:43;;;;;;;5.60;1.20;;;7.30;99.90;;;;;;5052146;28;20051;-65
2024/01/23 12:45:17;;;;;;;7.00;3.33;;;7.20;99.90;;;;;;5050317;28;20513;-65
2024/01/23 12:47:50;;;;;;;8.82;2.03;;;7.20;99.90;;;;;;5051597;28;20072;-66
2024/01/23 12:50:25;;;;;;;4.28;1.95;;;7.10;99.90;;;;;;5051538;28;20560;-65
2024/01/23 12:52:58;;;;;;;4.10;1.48;;;7.10;99.90;;;;;;5033012;28;20045;-65
2024/01/23 12:55:33;;;;;;;2.67;1.20;;;7.00;99.90;;;;;;5044953;28;20146;-65
2024/01/23 12:58:07;;;;;;;6.55;2.17;;;6.90;99.90;;;;;;5027031;28;20096;-65
2024/01/23 13:00:39;;;;;;;5.95;2.45;;;6.90;99.90;;;;;;5036855;28;20049;-65
2024/01/23 13:03:15;;;;;;;6.68;1.25;;;6.80;99.90;;;;;;5036982;28;20041;-65
2024/01/23 13:05:46;;;;;;;3.45;1.38;;;6.80;99.90;;;;;;5042440;28;20045;-65
2024/01/23 13:08:18;;;;;;;5.30;1.85;;;6.70;99.90;;;;;;5046546;28;20106;-65
2024/01/23 13:10:50;;;;;;;5.70;1.65;;;6.70;99.90;;;;;;5048317;28;20039;-65
2024/01/23 13:13:22;;;;;;;5.68;1.50;;;6.80;99.90;;;;;;5033833;28;20128;-65
2024/01/23 13:15:54;;;;;;;9.40;1.10;;;6.80;99.90;;;;;;5036275;28;20476;-65
2024/01/23 13:18:26;;;;;;;10.18;3.85;;;6.70;99.90;;;;;;5050296;28;20041;-65
2024/01/23 13:20:58;;;;;;;5.32;1.42;;;6.70;99.90;;;;;;5034087;28;20513;-65